createdAt,value
2022-10-14T00:03:17.390Z,50.52
2022-10-14T00:08:22.545Z,51.57
2022-10-14T00:13:28.316Z,51.85
2022-10-14T00:18:34.943Z,49.63
2022-10-14T00:23:39.971Z,51.67
2022-10-14T00:28:45.519Z,49.80
2022-10-14T00:38:56.808Z,50.65
2022-10-14T00:44:07.944Z,50.17
2022-10-14T00:49:19.612Z,50.90
2022-10-14T00:54:28.285Z,50.10
2022-10-14T00:59:36.103Z,49.03
2022-10-14T01:04:43.418Z,49.37
2022-10-14T01:09:57.470Z,50.97
2022-10-14T01:15:25.159Z,51.17
2022-10-14T01:20:42.287Z,49.33
2022-10-14T01:26:07.345Z,48.63
2022-10-14T01:31:17.680Z,49.33
2022-10-14T01:36:44.031Z,51.03
2022-10-14T01:41:54.613Z,52.10
2022-10-14T01:47:03.046Z,48.97
2022-10-14T01:52:12.108Z,52.93
2022-10-14T01:57:20.315Z,49.17
2022-10-14T02:02:26.389Z,49.08
2022-10-14T02:07:34.311Z,50.07
2022-10-14T02:12:42.329Z,50.90
2022-10-14T02:18:18.926Z,49.37
2022-10-14T02:23:27.664Z,50.12
2022-10-14T02:28:34.966Z,50.03
2022-10-14T02:33:46.879Z,53.63
2022-10-14T02:38:53.940Z,50.27
2022-10-14T02:49:03.771Z,48.33
2022-10-14T02:54:09.029Z,49.67
2022-10-14T02:59:14.693Z,50.13
2022-10-14T03:04:19.850Z,48.63
2022-10-14T03:09:25.925Z,49.13
2022-10-14T03:14:31.225Z,50.07
2022-10-14T03:19:36.744Z,49.00
2022-10-14T03:24:42.103Z,48.10
2022-10-14T03:29:47.972Z,49.50
2022-10-14T03:34:53.438Z,49.23
2022-10-14T03:39:58.557Z,48.17
2022-10-14T03:45:04.765Z,48.03
2022-10-14T03:50:10.648Z,49.33
2022-10-14T03:55:16.904Z,53.40
2022-10-14T04:00:22.479Z,51.60
2022-10-14T04:05:30.873Z,50.80
2022-10-14T04:10:36.782Z,49.67
2022-10-14T04:15:42.655Z,48.80
2022-10-14T04:20:48.013Z,46.87
2022-10-14T04:25:53.476Z,47.50
2022-10-14T04:30:58.278Z,47.80
2022-10-14T04:36:07.015Z,48.60
2022-10-14T04:41:12.212Z,49.37
2022-10-14T04:46:17.181Z,49.57
2022-10-14T04:51:22.113Z,50.33
2022-10-14T04:56:27.572Z,49.67
2022-10-14T05:01:34.217Z,48.20
2022-10-14T05:06:39.548Z,48.28
2022-10-14T05:11:46.513Z,49.67
2022-10-14T05:16:52.232Z,49.67
2022-10-14T05:21:57.231Z,49.07
2022-10-14T05:27:03.410Z,48.07
2022-10-14T05:32:09.112Z,47.67
2022-10-14T05:37:14.333Z,47.87
2022-10-14T05:42:20.615Z,48.60
2022-10-14T05:52:34.210Z,48.50
2022-10-14T05:57:39.861Z,47.63
2022-10-14T06:02:44.858Z,49.40
2022-10-14T06:07:52.014Z,48.03
2022-10-14T06:12:57.990Z,47.87
2022-10-14T06:18:02.833Z,49.53
2022-10-14T06:23:08.604Z,48.97
2022-10-14T06:28:15.580Z,47.67
2022-10-14T06:38:27.319Z,49.57
2022-10-14T06:43:35.769Z,52.80
2022-10-14T06:48:41.520Z,53.77
2022-10-14T06:53:47.817Z,55.17
2022-10-14T06:58:56.613Z,53.90
2022-10-14T07:04:02.459Z,53.20
2022-10-14T07:09:07.863Z,54.77
2022-10-14T07:14:12.839Z,52.87
2022-10-14T07:19:19.017Z,54.53
2022-10-14T07:24:23.966Z,54.48
2022-10-14T07:29:29.480Z,55.70
2022-10-14T07:34:35.502Z,56.60
2022-10-14T07:39:40.759Z,54.03
2022-10-14T07:44:49.393Z,55.10
2022-10-14T07:49:56.172Z,52.40
2022-10-14T07:55:00.994Z,52.93
2022-10-14T08:00:08.236Z,53.87
2022-10-14T08:05:36.386Z,54.10
2022-10-14T08:10:20.285Z,62.30
2022-10-14T08:15:27.176Z,60.28
2022-10-14T08:20:32.979Z,58.80
2022-10-14T08:25:38.882Z,58.33
2022-10-14T08:30:44.075Z,58.10
2022-10-14T08:35:53.119Z,57.30
2022-10-14T08:40:58.694Z,59.07
2022-10-14T08:51:33.696Z,58.40
2022-10-14T08:56:43.676Z,56.13
2022-10-14T09:02:08.976Z,55.43
2022-10-14T09:07:22.739Z,55.96
2022-10-14T09:12:35.552Z,55.83
2022-10-14T09:18:01.741Z,56.60
2022-10-14T09:23:19.665Z,54.23
2022-10-14T09:28:49.425Z,54.97
2022-10-14T09:34:26.691Z,54.90
2022-10-14T09:39:37.537Z,55.10
2022-10-14T09:50:30.997Z,55.35
2022-10-14T09:55:36.355Z,54.17
2022-10-14T10:00:43.099Z,55.43
2022-10-14T10:05:49.669Z,66.17
2022-10-14T10:11:09.537Z,55.43
2022-10-14T10:16:33.022Z,54.67
2022-10-14T10:21:39.097Z,57.87
2022-10-14T10:26:44.551Z,57.30
2022-10-14T10:32:19.559Z,56.33
2022-10-14T10:37:33.516Z,55.50
2022-10-14T10:42:52.247Z,54.03
2022-10-14T10:48:10.399Z,53.80
2022-10-14T10:53:23.456Z,54.60
2022-10-14T10:58:48.518Z,54.50
2022-10-14T11:04:15.844Z,52.10
2022-10-14T11:09:44.333Z,51.77
2022-10-14T11:15:05.173Z,52.70
2022-10-14T11:20:22.755Z,53.03
2022-10-14T11:25:44.766Z,53.17
2022-10-14T11:31:02.505Z,53.17
2022-10-14T11:36:42.777Z,52.73
2022-10-14T11:42:14.253Z,52.85
2022-10-14T11:47:33.481Z,54.53
2022-10-14T11:52:41.685Z,53.63
2022-10-14T11:57:56.743Z,53.33
2022-10-14T12:03:14.189Z,53.10
2022-10-14T12:08:42.485Z,52.80
2022-10-14T12:13:52.424Z,52.43
2022-10-14T12:18:58.895Z,49.13
2022-10-14T12:24:10.470Z,49.60
2022-10-14T12:29:18.448Z,49.70
2022-10-14T12:34:30.553Z,49.67
2022-10-14T12:39:37.997Z,50.27
2022-10-14T12:44:48.612Z,49.33
2022-10-14T12:49:57.569Z,49.00
2022-10-14T12:55:05.733Z,48.63
2022-10-14T13:00:25.985Z,48.63
2022-10-14T13:05:34.234Z,48.87
2022-10-14T13:10:46.923Z,48.60
2022-10-14T13:15:52.976Z,48.70
2022-10-14T13:20:59.258Z,48.23
2022-10-14T13:26:20.794Z,48.13
2022-10-14T13:31:31.304Z,48.37
2022-10-14T13:36:45.603Z,49.00
2022-10-14T13:41:52.638Z,48.30
2022-10-14T13:46:58.306Z,49.30
2022-10-14T13:52:10.731Z,48.80
2022-10-14T14:02:30.142Z,48.63
2022-10-14T14:08:08.426Z,48.73
2022-10-14T14:12:45.599Z,48.10
2022-10-14T14:17:51.345Z,47.85
2022-10-14T14:22:59.430Z,47.77
2022-10-14T14:28:06.534Z,48.27
2022-10-14T14:33:18.279Z,48.03
2022-10-14T14:38:30.525Z,47.98
2022-10-14T14:43:40.836Z,48.50
2022-10-14T14:48:45.791Z,48.87
2022-10-14T14:59:03.779Z,47.93
2022-10-14T15:04:23.816Z,48.30
2022-10-14T15:09:36.443Z,48.78
2022-10-14T15:14:53.327Z,48.30
2022-10-14T15:20:07.250Z,48.60
2022-10-14T15:25:16.520Z,48.68
2022-10-14T15:30:27.093Z,49.30
2022-10-14T15:35:37.039Z,50.47
2022-10-14T15:40:44.256Z,48.87
2022-10-14T15:46:15.856Z,49.08
2022-10-14T15:51:23.591Z,54.20
2022-10-14T15:56:30.213Z,56.60
2022-10-14T16:01:41.705Z,50.83
2022-10-14T16:06:47.283Z,51.37
2022-10-14T16:11:55.300Z,58.20
2022-10-14T16:17:03.326Z,53.60
2022-10-14T16:22:10.422Z,53.53
2022-10-14T16:27:15.475Z,51.23
2022-10-14T16:32:20.832Z,51.10
2022-10-14T16:37:26.295Z,49.33
2022-10-14T16:42:31.756Z,49.20
2022-10-14T16:47:38.267Z,48.30
2022-10-14T16:53:05.090Z,48.90
2022-10-14T16:58:08.310Z,50.20
2022-10-14T17:03:13.477Z,50.00
2022-10-14T17:08:18.722Z,50.40
2022-10-14T17:13:23.875Z,48.65
2022-10-14T17:18:34.569Z,51.93
2022-10-14T17:23:41.422Z,49.83
2022-10-14T17:28:49.188Z,52.67
2022-10-14T17:33:54.955Z,54.00
2022-10-14T17:39:01.526Z,54.80
2022-10-14T17:44:07.191Z,56.03
2022-10-14T17:49:14.294Z,61.05
2022-10-14T17:54:20.468Z,61.42
2022-10-14T17:59:27.261Z,58.73
2022-10-14T18:04:34.266Z,58.93
2022-10-14T18:09:40.236Z,56.53
2022-10-14T18:19:52.384Z,54.85
2022-10-14T18:24:58.662Z,52.53
2022-10-14T18:30:07.055Z,55.90
2022-10-14T18:35:13.571Z,56.33
2022-10-14T18:40:20.638Z,56.30
2022-10-14T18:45:29.846Z,54.00
2022-10-14T18:50:36.725Z,54.53
2022-10-14T18:55:42.635Z,54.90
2022-10-14T19:00:47.759Z,53.73
2022-10-14T19:05:54.950Z,51.67
2022-10-14T19:11:08.805Z,52.93
2022-10-14T19:16:20.005Z,51.37
2022-10-14T19:21:28.641Z,52.33
2022-10-14T19:26:36.151Z,56.83
2022-10-14T19:31:43.296Z,54.73
2022-10-14T19:36:49.673Z,51.53
2022-10-14T19:41:55.706Z,58.15
2022-10-14T19:52:05.817Z,65.47
2022-10-14T19:57:11.422Z,73.63
2022-10-14T20:02:17.588Z,72.13
2022-10-14T20:07:23.636Z,65.13
2022-10-14T20:12:31.307Z,71.17
2022-10-14T20:17:37.008Z,65.30
2022-10-14T20:22:43.510Z,58.45
2022-10-14T20:27:50.503Z,52.77
2022-10-14T20:32:56.602Z,53.43
2022-10-14T20:43:07.610Z,55.50
2022-10-14T20:48:13.185Z,55.10
2022-10-14T20:53:18.718Z,55.63
2022-10-14T20:58:24.489Z,46.37
2022-10-14T21:03:29.946Z,46.63
2022-10-14T21:08:35.921Z,47.90
2022-10-14T21:13:41.927Z,48.52
2022-10-14T21:18:48.710Z,49.00
2022-10-14T21:23:55.183Z,49.87
2022-10-14T21:29:02.758Z,50.07
2022-10-14T21:34:08.572Z,50.13
2022-10-14T21:39:16.117Z,51.20
2022-10-14T21:44:22.730Z,52.10
2022-10-14T21:49:28.622Z,52.20
2022-10-14T21:54:34.085Z,51.97
2022-10-14T21:59:40.161Z,51.97
2022-10-14T22:04:50.537Z,50.30
2022-10-14T22:09:59.478Z,51.67
2022-10-14T22:20:09.785Z,49.27
2022-10-14T22:25:16.273Z,49.58
2022-10-14T22:30:22.655Z,49.37
2022-10-14T22:35:28.383Z,49.63
2022-10-14T22:40:34.892Z,49.70
2022-10-14T22:45:40.631Z,50.50
2022-10-14T22:50:45.740Z,51.20
2022-10-14T22:55:55.011Z,50.20
2022-10-14T23:01:08.409Z,49.93
2022-10-14T23:06:14.605Z,48.53
2022-10-14T23:11:22.969Z,49.18
2022-10-14T23:16:30.038Z,49.23
2022-10-14T23:26:41.411Z,48.70
2022-10-14T23:31:46.830Z,50.70
2022-10-14T23:36:55.845Z,48.92
2022-10-14T23:41:59.489Z,49.00
2022-10-14T23:47:04.382Z,48.20
2022-10-14T23:52:10.926Z,49.35
2022-10-14T23:57:16.754Z,48.70
